• Join FlightAware (Why Join?)
  • Login
  • US Flag 
04:57PM EDT


 

Airport Tracker/Info


-or-


 

Live Flight TrackerFlight Track Log ✈ CTL61 ✈ 23-Apr-2013 ✈ KCMH - KBLF

Flight Track Log - Related Links

Times and Time Zones

All times are in EDT time to prevent confusion due to time zone crossing. See the CTL61 flight status page for this flight to view local times or setup timezone preferences in your user account.

Time Position Orientation Groundspeed Altitude Reporting Facility
EDT Latitude Longitude Course Direction KTS MPH feet Rate Location/Type
09:19PM 39.9950 -82.8958 188° South 108 124 1,100  Level Indianapolis Center
09:21PM 39.9692 -82.9003 188° South 97 112 2,500 1,080 Climbing Indianapolis Center
09:22PM 39.9425 -82.8833 154° Southeast 102 117 3,600 1,080 Climbing Indianapolis Center
09:23PM 39.9172 -82.8675 154° Southeast 101 116 4,700 1,080 Climbing Indianapolis Center
09:24PM 39.8869 -82.8486 154° Southeast 102 117 5,800 960 Climbing Indianapolis Center
09:25PM 39.8583 -82.8306 154° Southeast 110 127 6,700 600 Climbing Indianapolis Center
09:26PM 39.8267 -82.8100 154° Southeast 124 143 7,100 120 Climbing Indianapolis Center
09:27PM 39.7750 -82.7758 153° Southeast 169 194 7,100  Level Indianapolis Center
09:28PM 39.7447 -82.7558 153° Southeast 163 188 7,100  Level Indianapolis Center
09:29PM 39.7039 -82.7272 152° Southeast 165 190 7,100  Level Indianapolis Center
09:30PM 39.6608 -82.7000 154° Southeast 168 193 7,100  Level Indianapolis Center
09:31PM 39.6192 -82.6719 153° Southeast 168 193 7,100 -60 Level Indianapolis Center
09:32PM 39.5744 -82.6436 154° Southeast 174 200 7,000  Descending Indianapolis Center
09:33PM 39.5303 -82.6133 152° Southeast 177 204 7,100  Climbing Indianapolis Center
09:34PM 39.4875 -82.5864 154° Southeast 172 198 7,100  Level Indianapolis Center
09:35PM 39.4439 -82.5614 156° South 170 196 7,100 -60 Level Indianapolis Center
09:36PM 39.4017 -82.5319 152° Southeast 170 196 7,000  Descending Indianapolis Center
09:37PM 39.3592 -82.5039 153° Southeast 170 196 7,100  Climbing Indianapolis Center
09:38PM 39.3156 -82.4786 156° South 170 196 7,000 -60 Descending Indianapolis Center
09:39PM 39.2739 -82.4514 153° Southeast 171 197 7,000  Level Indianapolis Center
09:40PM 39.2308 -82.4247 154° Southeast 170 196 7,000  Level Indianapolis Center
09:41PM 39.1794 -82.3911 153° Southeast 172 198 7,000  Level Indianapolis Center
09:42PM 39.1375 -82.3658 155° Southeast 169 194 7,000  Level Indianapolis Center
09:43PM 39.0942 -82.3383 154° Southeast 172 198 7,000  Level Indianapolis Center
09:44PM 39.0517 -82.3122 154° Southeast 170 196 7,000  Level Indianapolis Center
09:45PM 39.0089 -82.2869 155° Southeast 170 196 7,000  Level Indianapolis Center
09:46PM 38.9656 -82.2606 155° Southeast 172 198 7,000  Level Indianapolis Center
09:47PM 38.9231 -82.2331 153° Southeast 170 196 7,000  Level Indianapolis Center
09:48PM 38.8792 -82.2058 154° Southeast 175 201 7,000  Level Indianapolis Center
09:49PM 38.8367 -82.1808 155° Southeast 172 198 7,000  Level Indianapolis Center
09:50PM 38.7858 -82.1492 154° Southeast 171 197 7,000  Level Indianapolis Center
09:51PM 38.7431 -82.1219 154° Southeast 171 197 7,100  Climbing Indianapolis Center
09:52PM 38.7000 -82.0975 156° South 170 196 7,100  Level Indianapolis Center
09:53PM 38.6556 -82.0697 154° Southeast 176 203 7,100  Level Indianapolis Center
09:54PM 38.6119 -82.0422 154° Southeast 175 201 7,100  Level Indianapolis Center
09:55PM 38.5678 -82.0153 154° Southeast 176 203 7,100  Level Indianapolis Center
09:56PM 38.5236 -81.9911 157° South 173 199 7,100  Level Indianapolis Center
09:57PM 38.4792 -81.9622 153° Southeast 179 206 7,100  Level Indianapolis Center
09:59PM 38.4256 -81.9297 155° Southeast 179 206 7,100  Level Indianapolis Center
10:00PM 38.3817 -81.9050 156° South 174 200 7,100  Level Indianapolis Center
10:01PM 38.3369 -81.8772 154° Southeast 176 203 7,100  Level Indianapolis Center
10:02PM 38.2919 -81.8508 155° Southeast 178 205 7,100  Level Indianapolis Center
10:03PM 38.2475 -81.8244 155° Southeast 177 204 7,200  Climbing Indianapolis Center
10:04PM 38.2033 -81.7978 155° Southeast 176 203 7,100  Descending Indianapolis Center
10:05PM 38.1583 -81.7700 154° Southeast 178 205 7,200  Climbing Indianapolis Center
10:06PM 38.1144 -81.7439 155° Southeast 176 203 7,100 -60 Descending Indianapolis Center
10:07PM 38.0700 -81.7175 155° Southeast 176 203 7,100  Level Indianapolis Center
10:08PM 38.0172 -81.6847 154° Southeast 175 201 7,100  Level Indianapolis Center
10:09PM 37.9744 -81.6592 155° Southeast 173 199 7,100  Level Indianapolis Center
10:10PM 37.9322 -81.6325 154° Southeast 170 196 7,100  Level Indianapolis Center
10:11PM 37.8883 -81.6039 153° Southeast 174 200 7,100  Level Indianapolis Center
10:12PM 37.8469 -81.5753 151° Southeast 171 197 7,100 -60 Level Indianapolis Center
10:13PM 37.8008 -81.5436 152° Southeast 171 197 7,000 -60 Descending Indianapolis Center
10:14PM 37.7575 -81.5156 153° Southeast 173 199 7,000  Level Indianapolis Center
10:15PM 37.7197 -81.4919 154° Southeast 169 194 7,000  Level Indianapolis Center
10:16PM 37.6733 -81.4611 152° Southeast 164 189 7,000  Level Indianapolis Center
10:17PM 37.6328 -81.4347 153° Southeast 166 191 7,000  Level Indianapolis Center
10:18PM 37.5922 -81.4075 152° Southeast 168 193 7,000  Level Indianapolis Center